Time;durP1;ratioP1;P1;durP2;ratioP2;P2;SDS_P1;SDS_P2;PMS_P1;PMS_P2;Temp;Humidity;BMP_temperature;BMP_pressure;BME280_temperature;BME280_humidity;BME280_pressure;Samples;Min_cycle;Max_cycle;Signal;HPM_P1;HPM_P2
2023/02/25 00:01:23;;;;;;;28.23;3.60;;;4.90;99.90;;;;;;4947266;28;37306;-76
2023/02/25 00:03:54;;;;;;;21.63;3.13;;;4.90;99.90;;;;;;4936817;28;37254;-76
2023/02/25 00:06:21;;;;;;;24.30;3.30;;;4.80;99.90;;;;;;4938250;28;37415;-76
2023/02/25 00:08:49;;;;;;;22.67;3.50;;;4.80;99.90;;;;;;4938185;28;38968;-76
2023/02/25 00:11:16;;;;;;;17.93;3.60;;;4.80;99.90;;;;;;4935124;28;37492;-75
2023/02/25 00:13:43;;;;;;;23.27;3.73;;;4.70;99.90;;;;;;4938590;28;38046;-76
2023/02/25 00:16:11;;;;;;;23.43;3.27;;;4.70;99.90;;;;;;4936086;28;38278;-76
2023/02/25 00:18:39;;;;;;;27.23;3.50;;;4.70;99.90;;;;;;4935691;28;40292;-76
2023/02/25 00:21:08;;;;;;;24.87;4.10;;;4.80;99.90;;;;;;4935011;28;39276;-76
2023/02/25 00:23:35;;;;;;;13.00;2.50;;;4.80;99.90;;;;;;4933582;29;37025;-76
2023/02/25 00:26:04;;;;;;;22.53;4.37;;;4.90;99.90;;;;;;4935954;28;37915;-76
2023/02/25 00:28:31;;;;;;;24.07;3.23;;;5.00;99.90;;;;;;4932793;29;47176;-76
2023/02/25 00:30:57;;;;;;;20.60;2.90;;;5.00;99.90;;;;;;4933104;28;37487;-76
2023/02/25 00:33:26;;;;;;;20.17;3.63;;;5.20;99.90;;;;;;4930309;28;36931;-76
2023/02/25 00:35:52;;;;;;;16.33;2.93;;;5.40;99.90;;;;;;4932627;28;35884;-76
2023/02/25 00:38:18;;;;;;;21.00;3.53;;;5.50;99.90;;;;;;4934132;28;39328;-76
2023/02/25 00:40:44;;;;;;;22.87;3.23;;;5.60;99.90;;;;;;4932368;29;37101;-75
2023/02/25 00:43:10;;;;;;;26.07;2.67;;;5.70;99.90;;;;;;4932658;28;37578;-76
2023/02/25 00:45:39;;;;;;;18.10;3.17;;;5.80;99.90;;;;;;4932408;28;38088;-78
2023/02/25 00:48:06;;;;;;;20.87;2.80;;;5.90;99.90;;;;;;4933228;28;38583;-76
2023/02/25 00:50:33;;;;;;;20.83;3.27;;;5.90;99.90;;;;;;4930117;29;37679;-76
2023/02/25 00:52:59;;;;;;;19.77;2.90;;;5.90;99.90;;;;;;4925153;29;38105;-76
2023/02/25 00:55:32;;;;;;;29.43;3.63;;;5.90;99.90;;;;;;4930332;28;37129;-76
2023/02/25 00:58:00;;;;;;;21.13;3.00;;;5.90;99.90;;;;;;4933059;28;37610;-76
2023/02/25 01:00:27;;;;;;;21.23;3.03;;;5.90;99.90;;;;;;4930344;28;37596;-76
2023/02/25 01:02:55;;;;;;;26.27;3.20;;;5.90;99.90;;;;;;4926263;29;38231;-76
2023/02/25 01:05:22;;;;;;;25.80;4.40;;;6.00;99.90;;;;;;4933692;29;37880;-76
2023/02/25 01:07:48;;;;;;;22.10;3.60;;;5.90;99.90;;;;;;4913047;29;37715;-76
2023/02/25 01:10:14;;;;;;;22.53;3.83;;;6.00;99.90;;;;;;4931320;29;37267;-76
2023/02/25 01:12:40;;;;;;;23.10;3.07;;;5.90;99.90;;;;;;4933012;28;38108;-76
2023/02/25 01:15:07;;;;;;;21.37;3.03;;;6.00;99.90;;;;;;4921500;29;36390;-76
2023/02/25 01:17:33;;;;;;;19.20;2.90;;;6.00;99.90;;;;;;4920129;29;37521;-76
2023/02/25 01:19:59;;;;;;;25.93;3.20;;;6.00;99.90;;;;;;4931461;29;38460;-76
2023/02/25 01:22:25;;;;;;;18.37;3.70;;;5.90;99.90;;;;;;4915125;29;37123;-76
2023/02/25 01:24:54;;;;;;;14.97;3.07;;;5.90;99.90;;;;;;4912215;29;36399;-75
2023/02/25 01:27:20;;;;;;;15.43;1.93;;;5.90;99.90;;;;;;4931315;28;38621;-75
2023/02/25 01:29:46;;;;;;;10.30;1.97;;;5.90;99.90;;;;;;4921587;29;37177;-76
2023/02/25 01:32:14;;;;;;;19.63;2.63;;;5.90;99.90;;;;;;4922289;29;37656;-76
2023/02/25 01:34:40;;;;;;;18.50;2.27;;;5.90;99.90;;;;;;4918057;29;36141;-76
2023/02/25 01:37:07;;;;;;;20.30;2.57;;;5.80;99.90;;;;;;4925125;29;39114;-76
2023/02/25 01:39:33;;;;;;;17.80;2.80;;;5.90;99.90;;;;;;4914676;29;38727;-76
2023/02/25 01:42:02;;;;;;;21.30;2.20;;;5.90;99.90;;;;;;4923396;29;38087;-76
2023/02/25 01:44:36;;;;;;;17.93;2.40;;;6.00;99.90;;;;;;4918933;29;47181;-76
2023/02/25 01:47:03;;;;;;;18.20;2.30;;;6.00;99.90;;;;;;4932146;28;39198;-75
2023/02/25 01:49:38;;;;;;;20.47;2.50;;;5.90;99.90;;;;;;4927843;29;37454;-77
2023/02/25 01:52:20;;;;;;;20.20;3.07;;;6.00;99.90;;;;;;4919967;28;37834;-76
2023/02/25 01:54:50;;;;;;;23.90;2.57;;;6.00;99.90;;;;;;4930690;29;35528;-77
2023/02/25 01:57:18;;;;;;;13.73;2.50;;;6.10;99.90;;;;;;4915040;29;37299;-77
2023/02/25 01:59:45;;;;;;;16.43;2.37;;;6.00;99.90;;;;;;4925825;29;38469;-76
2023/02/25 02:02:14;;;;;;;13.27;2.63;;;6.10;99.90;;;;;;5311383;23;38965;-76
2023/02/25 02:04:42;;;;;;;20.27;2.60;;;6.10;99.90;;;;;;4942776;28;37174;-76
2023/02/25 02:07:09;;;;;;;23.77;3.00;;;6.10;99.90;;;;;;4953212;28;38435;-76
2023/02/25 02:09:36;;;;;;;15.73;3.53;;;6.10;99.90;;;;;;4954923;28;38254;-76
2023/02/25 02:12:04;;;;;;;22.97;3.07;;;6.00;99.90;;;;;;4954574;28;38079;-75
2023/02/25 02:14:34;;;;;;;20.67;3.13;;;5.90;99.90;;;;;;4944704;28;36379;-76
2023/02/25 02:17:22;;;;;;;23.53;3.03;;;5.90;99.90;;;;;;4954400;28;39391;-76
2023/02/25 02:20:11;;;;;;;21.53;3.10;;;5.90;99.90;;;;;;4940235;28;47053;-77
2023/02/25 02:22:43;;;;;;;14.10;2.60;;;5.90;99.90;;;;;;4935981;28;47371;-77
2023/02/25 02:25:12;;;;;;;14.13;2.38;;;6.00;99.90;;;;;;4947787;28;37705;-76
2023/02/25 02:28:06;;;;;;;17.43;3.03;;;6.00;99.90;;;;;;4952983;28;38683;-77
2023/02/25 02:31:09;;;;;;;22.33;4.77;;;5.90;99.90;;;;;;4937835;28;47208;-76
2023/02/25 02:34:28;;;;;;;14.82;2.40;;;5.70;99.90;;;;;;4932041;28;47987;-77
2023/02/25 02:37:04;;;;;;;13.17;2.07;;;5.40;99.90;;;;;;4920083;28;48875;-75
2023/02/25 02:39:49;;;;;;;13.80;2.60;;;5.30;99.90;;;;;;4945601;28;48867;-76
2023/02/25 02:42:26;;;;;;;16.33;2.57;;;5.20;99.90;;;;;;4946880;28;37160;-76
2023/02/25 02:45:01;;;;;;;11.63;1.97;;;5.20;99.90;;;;;;4932281;28;37080;-76
2023/02/25 02:47:30;;;;;;;14.13;2.27;;;5.20;99.90;;;;;;4936784;28;37173;-76
2023/02/25 02:49:59;;;;;;;18.50;2.30;;;5.20;99.90;;;;;;4943877;28;40020;-76
2023/02/25 02:52:32;;;;;;;14.33;3.30;;;5.20;99.90;;;;;;4920524;28;37017;-76
2023/02/25 02:55:37;;;;;;;15.38;1.88;;;5.20;99.90;;;;;;4941477;28;36874;-76
2023/02/25 02:58:13;;;;;;;14.73;2.47;;;5.30;99.90;;;;;;4894857;29;48813;-76
2023/02/25 03:00:42;;;;;;;13.63;2.30;;;5.30;99.90;;;;;;4940587;28;39905;-77
2023/02/25 03:03:38;;;;;;;12.50;2.50;;;5.30;99.90;;;;;;4953344;28;39677;-77
2023/02/25 03:06:09;;;;;;;20.20;2.33;;;5.30;99.90;;;;;;4933951;28;36613;-76
2023/02/25 03:08:43;;;;;;;11.70;2.50;;;5.30;99.90;;;;;;4942174;28;36499;-77
2023/02/25 03:11:10;;;;;;;14.07;2.17;;;5.30;99.90;;;;;;4954498;28;39914;-76
2023/02/25 03:13:36;;;;;;;24.03;2.50;;;5.20;99.90;;;;;;4936614;28;37170;-77
2023/02/25 03:16:08;;;;;;;21.70;4.00;;;5.20;99.90;;;;;;4937213;28;37855;-76
2023/02/25 03:18:39;;;;;;;18.87;3.30;;;5.20;99.90;;;;;;4956403;28;37158;-76
2023/02/25 03:21:17;;;;;;;14.80;2.57;;;5.30;99.90;;;;;;4951341;28;40048;-76
2023/02/25 03:23:46;;;;;;;21.27;2.57;;;5.40;99.90;;;;;;4952538;28;39571;-77
2023/02/25 03:26:37;;;;;;;23.43;2.83;;;5.30;99.90;;;;;;4938691;28;36725;-77
2023/02/25 03:29:03;;;;;;;22.63;3.20;;;5.40;99.90;;;;;;4967687;28;36948;-76
2023/02/25 03:32:03;;;;;;;17.47;3.03;;;5.40;99.90;;;;;;4975703;28;40176;-77
2023/02/25 03:34:42;;;;;;;18.07;2.40;;;5.40;99.90;;;;;;4970833;28;48763;-77
2023/02/25 03:37:17;;;;;;;20.57;3.13;;;5.40;99.90;;;;;;4951211;28;36849;-77
2023/02/25 03:39:48;;;;;;;20.57;2.63;;;5.40;99.90;;;;;;4961930;28;38144;-77
2023/02/25 03:42:19;;;;;;;21.47;3.47;;;5.50;99.90;;;;;;4932793;28;37748;-77
2023/02/25 03:44:50;;;;;;;21.27;3.53;;;5.50;99.90;;;;;;4957162;28;39934;-76
2023/02/25 03:47:18;;;;;;;21.00;3.50;;;5.60;99.90;;;;;;4959759;28;37986;-76
2023/02/25 03:49:53;;;;;;;23.10;4.13;;;5.70;99.90;;;;;;4953914;28;36499;-76
2023/02/25 03:52:22;;;;;;;23.20;3.50;;;5.70;99.90;;;;;;4943669;28;38366;-75
2023/02/25 03:54:51;;;;;;;20.30;2.80;;;5.00;99.90;;;;;;4975508;28;38671;-75
2023/02/25 03:57:18;;;;;;;15.93;2.70;;;4.60;99.90;;;;;;4945676;28;36711;-75
2023/02/25 03:59:44;;;;;;;22.80;2.77;;;4.40;99.90;;;;;;4947459;28;37094;-75
2023/02/25 04:02:13;;;;;;;18.70;2.70;;;4.30;99.90;;;;;;4965931;28;39990;-75
2023/02/25 04:04:39;;;;;;;23.83;2.70;;;4.20;99.90;;;;;;4927597;29;38004;-75
2023/02/25 04:07:05;;;;;;;21.43;2.97;;;4.10;99.90;;;;;;4932884;28;37694;-75
2023/02/25 04:09:31;;;;;;;28.90;3.33;;;4.10;99.90;;;;;;4935037;28;36917;-75
2023/02/25 04:11:57;;;;;;;26.30;4.00;;;4.20;99.90;;;;;;4920150;29;37798;-75
2023/02/25 04:14:24;;;;;;;24.40;3.70;;;4.40;99.90;;;;;;4934179;28;40168;-75
2023/02/25 04:16:51;;;;;;;16.93;2.93;;;4.60;99.90;;;;;;4919631;29;35804;-75
2023/02/25 04:19:17;;;;;;;14.63;2.50;;;4.60;99.90;;;;;;4933548;29;38357;-75
2023/02/25 04:21:44;;;;;;;19.23;2.07;;;4.50;99.90;;;;;;4918854;29;38272;-75
2023/02/25 04:24:10;;;;;;;11.97;2.23;;;4.50;99.90;;;;;;4931749;28;38211;-75
2023/02/25 04:26:36;;;;;;;11.07;1.60;;;4.40;99.90;;;;;;4923784;29;36862;-75
2023/02/25 04:29:02;;;;;;;8.13;2.03;;;4.50;99.90;;;;;;4923738;28;37851;-75
2023/02/25 04:31:28;;;;;;;10.87;1.70;;;4.50;99.90;;;;;;4918480;29;39106;-75
2023/02/25 04:33:56;;;;;;;13.67;1.80;;;4.60;99.90;;;;;;4933749;28;38443;-75
2023/02/25 04:36:25;;;;;;;20.70;2.80;;;4.70;99.90;;;;;;4921062;29;37133;-75
2023/02/25 04:38:52;;;;;;;21.87;3.03;;;4.70;99.90;;;;;;4933972;28;37124;-75
2023/02/25 04:41:18;;;;;;;12.83;2.37;;;4.70;99.90;;;;;;4933969;28;38109;-75
2023/02/25 04:43:45;;;;;;;10.73;2.10;;;4.90;99.90;;;;;;4921898;29;37591;-75
2023/02/25 04:46:11;;;;;;;16.80;2.20;;;5.00;99.90;;;;;;4933741;28;37894;-75
2023/02/25 04:48:38;;;;;;;14.63;2.17;;;5.00;99.90;;;;;;4916497;29;36895;-75
2023/02/25 04:51:05;;;;;;;16.67;2.53;;;5.00;99.90;;;;;;4933648;28;38785;-75
2023/02/25 04:53:31;;;;;;;11.73;1.60;;;5.00;99.90;;;;;;4932244;28;39333;-75
2023/02/25 04:56:05;;;;;;;17.97;2.40;;;5.10;99.90;;;;;;4934550;29;39466;-75
2023/02/25 04:58:32;;;;;;;16.57;2.53;;;5.20;99.90;;;;;;4933217;29;48941;-76
2023/02/25 05:01:04;;;;;;;13.80;2.63;;;5.10;99.90;;;;;;4917042;29;38027;-76
2023/02/25 05:03:32;;;;;;;14.73;2.13;;;5.10;99.90;;;;;;4924627;28;47258;-76
2023/02/25 05:05:58;;;;;;;20.33;3.67;;;5.10;99.90;;;;;;4943360;28;37992;-76
2023/02/25 05:08:24;;;;;;;15.97;2.70;;;5.10;99.90;;;;;;4939850;28;37536;-75
2023/02/25 05:10:50;;;;;;;17.07;2.30;;;5.10;99.90;;;;;;4941792;28;37761;-77
2023/02/25 05:13:18;;;;;;;17.20;2.53;;;5.10;99.90;;;;;;4952745;28;38058;-75
2023/02/25 05:15:44;;;;;;;17.93;2.53;;;5.00;99.90;;;;;;4942856;28;36596;-76
2023/02/25 05:18:10;;;;;;;17.27;2.43;;;5.10;99.90;;;;;;4941438;28;36141;-75
2023/02/25 05:20:44;;;;;;;21.70;2.50;;;5.10;99.90;;;;;;4949366;28;38829;-75
2023/02/25 05:23:11;;;;;;;21.83;2.63;;;5.10;99.90;;;;;;4943850;28;38279;-75
2023/02/25 05:25:40;;;;;;;18.93;2.67;;;5.10;99.90;;;;;;4950987;28;39132;-75
2023/02/25 05:28:12;;;;;;;15.93;2.40;;;5.10;99.90;;;;;;4952071;28;37248;-75
2023/02/25 05:30:38;;;;;;;7.93;1.38;;;5.10;99.90;;;;;;4942113;28;38158;-76
2023/02/25 05:33:07;;;;;;;17.97;3.40;;;5.10;99.90;;;;;;4941365;28;38925;-75
2023/02/25 05:35:34;;;;;;;16.60;2.30;;;5.10;99.90;;;;;;4948153;28;38190;-75
2023/02/25 05:38:00;;;;;;;19.90;2.53;;;5.10;99.90;;;;;;4952738;28;38175;-76
2023/02/25 05:40:26;;;;;;;14.37;2.63;;;5.10;99.90;;;;;;4935831;28;38071;-76
2023/02/25 05:42:52;;;;;;;18.63;3.67;;;5.20;99.90;;;;;;4952294;28;38648;-76
2023/02/25 05:45:18;;;;;;;20.63;3.00;;;5.20;99.90;;;;;;4942946;28;37630;-75
2023/02/25 05:47:44;;;;;;;19.13;3.80;;;5.30;99.90;;;;;;4944026;28;36649;-75
2023/02/25 05:50:11;;;;;;;35.90;3.90;;;5.40;99.90;;;;;;4940128;28;39132;-76
2023/02/25 05:52:38;;;;;;;20.33;2.63;;;5.30;99.90;;;;;;4950777;28;38400;-75
2023/02/25 05:55:04;;;;;;;21.03;2.57;;;5.30;99.90;;;;;;4951803;28;39228;-76
2023/02/25 05:57:30;;;;;;;18.67;2.57;;;5.30;99.90;;;;;;4938778;28;35897;-76
2023/02/25 05:59:56;;;;;;;20.00;2.70;;;5.20;99.90;;;;;;4937918;28;38015;-76
2023/02/25 06:02:22;;;;;;;25.67;3.63;;;5.20;99.90;;;;;;4951884;28;38544;-75
2023/02/25 06:04:54;;;;;;;19.33;3.00;;;5.20;99.90;;;;;;4941581;28;37512;-77
2023/02/25 06:07:20;;;;;;;16.10;2.60;;;5.20;99.90;;;;;;4951535;28;37104;-75
2023/02/25 06:09:46;;;;;;;17.30;3.13;;;5.20;99.90;;;;;;4935408;28;38027;-75
2023/02/25 06:12:12;;;;;;;25.50;5.17;;;5.30;99.90;;;;;;4952120;28;38389;-76
2023/02/25 06:14:38;;;;;;;22.37;3.37;;;5.40;99.90;;;;;;4937621;28;37478;-76
2023/02/25 06:17:04;;;;;;;17.17;2.97;;;5.50;99.90;;;;;;4945822;28;35839;-76
2023/02/25 06:19:30;;;;;;;26.23;3.00;;;5.50;99.90;;;;;;4952817;28;38499;-77
2023/02/25 06:21:56;;;;;;;14.87;2.20;;;5.60;99.90;;;;;;4950992;28;38171;-76
2023/02/25 06:24:23;;;;;;;13.97;2.20;;;5.60;99.90;;;;;;4950863;28;39061;-75
2023/02/25 06:26:49;;;;;;;15.50;2.10;;;5.60;99.90;;;;;;4932715;28;36157;-75
2023/02/25 06:29:15;;;;;;;13.90;1.77;;;5.50;99.90;;;;;;4951544;28;39517;-76
2023/02/25 06:31:42;;;;;;;16.20;2.63;;;5.40;99.90;;;;;;4949709;28;39080;-76
2023/02/25 06:34:08;;;;;;;10.47;1.73;;;5.30;99.90;;;;;;4941792;28;37266;-77
2023/02/25 06:36:34;;;;;;;19.30;2.50;;;5.10;99.90;;;;;;4939512;28;35827;-76
2023/02/25 06:39:00;;;;;;;16.67;2.37;;;5.00;99.90;;;;;;4946476;28;38776;-76
2023/02/25 06:41:28;;;;;;;18.60;1.73;;;4.90;99.90;;;;;;4952491;28;20055;-76
2023/02/25 06:43:54;;;;;;;13.47;1.53;;;4.90;99.90;;;;;;4942524;28;39049;-76
2023/02/25 06:46:23;;;;;;;16.00;2.07;;;4.80;99.90;;;;;;4951051;28;37999;-76
2023/02/25 06:48:49;;;;;;;12.00;1.80;;;4.90;99.90;;;;;;4944411;28;39292;-76
2023/02/25 06:51:15;;;;;;;17.50;2.20;;;4.80;99.90;;;;;;4943842;28;37271;-76
2023/02/25 06:53:43;;;;;;;17.00;2.37;;;4.90;99.90;;;;;;4951814;28;38029;-76
2023/02/25 06:56:11;;;;;;;6.77;1.97;;;4.90;99.90;;;;;;4951411;28;36420;-76
2023/02/25 06:58:38;;;;;;;18.00;2.63;;;5.00;99.90;;;;;;4949758;28;39835;-77
2023/02/25 07:01:09;;;;;;;13.00;2.03;;;5.20;99.90;;;;;;4936434;28;37441;-75
2023/02/25 07:03:35;;;;;;;16.17;2.30;;;5.30;99.90;;;;;;4937386;28;36998;-76
2023/02/25 07:06:01;;;;;;;9.77;1.77;;;5.30;99.90;;;;;;4935897;28;35856;-76
2023/02/25 07:08:27;;;;;;;14.53;2.70;;;5.40;99.90;;;;;;4951430;28;49197;-76
2023/02/25 07:10:53;;;;;;;17.33;2.20;;;5.30;99.90;;;;;;4935849;28;38913;-76
2023/02/25 07:13:20;;;;;;;11.83;2.07;;;5.10;99.90;;;;;;4934098;28;36851;-75
2023/02/25 07:15:46;;;;;;;9.93;1.13;;;4.90;99.90;;;;;;4933615;28;36088;-76
2023/02/25 07:18:12;;;;;;;10.87;1.73;;;4.80;99.90;;;;;;4952057;28;39727;-76
2023/02/25 07:20:38;;;;;;;12.80;1.90;;;4.70;99.90;;;;;;4949897;28;38531;-76
2023/02/25 07:23:05;;;;;;;7.93;1.40;;;4.70;99.90;;;;;;4941668;28;37309;-76
2023/02/25 07:25:31;;;;;;;16.03;2.00;;;4.70;99.90;;;;;;4950819;28;37104;-76
2023/02/25 07:27:57;;;;;;;7.27;2.13;;;4.80;99.90;;;;;;4943641;28;37296;-76
2023/02/25 07:30:23;;;;;;;11.87;2.53;;;5.00;99.90;;;;;;4940443;28;40094;-76
2023/02/25 07:32:49;;;;;;;16.07;1.87;;;4.90;99.90;;;;;;4951005;28;38387;-76
2023/02/25 07:35:15;;;;;;;10.70;1.70;;;4.80;99.90;;;;;;4949734;28;37309;-75
2023/02/25 07:37:41;;;;;;;16.23;2.00;;;4.70;99.90;;;;;;4952462;28;39536;-76
2023/02/25 07:40:11;;;;;;;13.20;1.90;;;4.60;99.90;;;;;;4938030;28;37083;-75
2023/02/25 07:42:39;;;;;;;18.20;1.97;;;4.50;99.90;;;;;;4953113;28;38851;-75
2023/02/25 07:45:06;;;;;;;17.20;2.10;;;4.50;99.90;;;;;;4954430;28;37370;-75
2023/02/25 07:47:33;;;;;;;15.17;1.70;;;4.50;99.90;;;;;;4955129;28;38871;-75
2023/02/25 07:49:59;;;;;;;18.77;2.60;;;4.40;99.90;;;;;;4937755;28;38550;-75
2023/02/25 07:52:25;;;;;;;22.80;2.90;;;4.30;99.90;;;;;;4923824;28;37848;-75
2023/02/25 07:54:51;;;;;;;13.97;2.17;;;4.30;99.90;;;;;;4953641;28;37126;-76
2023/02/25 07:57:17;;;;;;;19.47;2.30;;;4.30;99.90;;;;;;4929739;28;38668;-75
2023/02/25 07:59:43;;;;;;;19.80;2.53;;;4.30;99.90;;;;;;4954444;28;39397;-75
2023/02/25 08:02:10;;;;;;;16.97;2.67;;;4.30;99.90;;;;;;4942561;28;37966;-75
2023/02/25 08:04:36;;;;;;;14.47;1.90;;;4.30;99.90;;;;;;4955110;28;38340;-75
2023/02/25 08:07:03;;;;;;;15.17;2.17;;;4.30;99.90;;;;;;4939777;28;37576;-75
2023/02/25 08:09:29;;;;;;;18.70;3.37;;;4.30;99.90;;;;;;4953583;28;39407;-75
2023/02/25 08:11:55;;;;;;;14.77;2.10;;;4.30;99.90;;;;;;4953645;28;39035;-76
2023/02/25 08:14:21;;;;;;;22.40;2.63;;;4.40;99.90;;;;;;4953007;28;38164;-75
2023/02/25 08:16:48;;;;;;;19.73;2.70;;;4.60;99.90;;;;;;4945756;28;38897;-76
2023/02/25 08:19:14;;;;;;;13.60;2.33;;;4.70;99.90;;;;;;4953073;28;38187;-75
2023/02/25 08:21:41;;;;;;;21.97;3.13;;;4.90;99.90;;;;;;4953101;28;39130;-76
2023/02/25 08:24:08;;;;;;;24.67;3.77;;;5.20;99.90;;;;;;4950966;28;37380;-76
2023/02/25 08:26:34;;;;;;;31.40;3.70;;;5.50;99.90;;;;;;4942883;28;37157;-76
2023/02/25 08:29:00;;;;;;;24.93;3.13;;;5.60;99.90;;;;;;4952675;28;38368;-75
2023/02/25 08:31:26;;;;;;;25.57;3.63;;;5.80;99.90;;;;;;4951125;28;47809;-75
2023/02/25 08:33:53;;;;;;;23.10;2.57;;;5.90;99.90;;;;;;4954603;28;37961;-75
2023/02/25 08:36:25;;;;;;;17.03;2.60;;;6.30;99.90;;;;;;4952753;28;38648;-75
2023/02/25 08:38:53;;;;;;;25.48;3.90;;;6.50;99.90;;;;;;4943699;28;38387;-75
2023/02/25 08:41:21;;;;;;;17.97;2.97;;;6.80;99.90;;;;;;4950789;28;38163;-76
2023/02/25 08:43:55;;;;;;;23.97;4.17;;;6.80;99.90;;;;;;4949740;28;36999;-76
2023/02/25 08:46:22;;;;;;;25.77;3.73;;;6.70;99.90;;;;;;4948397;28;38930;-75
2023/02/25 08:48:49;;;;;;;26.33;4.03;;;6.60;99.90;;;;;;4952744;28;38882;-75
2023/02/25 08:51:16;;;;;;;28.57;3.70;;;6.50;99.90;;;;;;4952469;28;38839;-75
2023/02/25 08:53:42;;;;;;;23.73;3.70;;;6.40;99.90;;;;;;4954114;28;37167;-77
2023/02/25 08:56:11;;;;;;;16.43;2.97;;;6.40;99.90;;;;;;4925339;28;38708;-75
2023/02/25 08:58:38;;;;;;;17.87;3.67;;;6.40;99.90;;;;;;4947140;28;37055;-76
2023/02/25 09:01:13;;;;;;;20.13;2.87;;;6.50;99.90;;;;;;4938120;28;36846;-75
2023/02/25 09:03:52;;;;;;;19.70;2.87;;;6.50;99.90;;;;;;4936746;28;38027;-76
2023/02/25 09:06:25;;;;;;;21.73;2.83;;;6.60;99.90;;;;;;4914166;28;38503;-75
2023/02/25 09:08:52;;;;;;;26.47;4.40;;;6.70;99.90;;;;;;4927166;29;37334;-76
2023/02/25 09:11:19;;;;;;;25.90;3.53;;;6.70;99.90;;;;;;4932716;29;39787;-75
2023/02/25 09:13:45;;;;;;;14.83;2.70;;;6.80;99.90;;;;;;4933460;29;37084;-76
2023/02/25 09:16:14;;;;;;;26.00;3.53;;;6.80;99.90;;;;;;4932666;28;40114;-75
2023/02/25 09:18:40;;;;;;;19.33;3.77;;;6.80;99.90;;;;;;4933197;28;38259;-75
2023/02/25 09:21:06;;;;;;;21.27;3.90;;;6.90;99.90;;;;;;4924795;29;37881;-75
2023/02/25 09:23:32;;;;;;;19.73;3.27;;;6.90;99.90;;;;;;4927002;29;35839;-75
2023/02/25 09:26:05;;;;;;;15.90;2.33;;;6.80;99.90;;;;;;4909704;29;39226;-75
2023/02/25 09:28:32;;;;;;;16.53;2.80;;;6.90;99.90;;;;;;4932898;28;48325;-76
2023/02/25 09:31:01;;;;;;;27.60;4.07;;;7.10;99.90;;;;;;4934281;28;38216;-76
2023/02/25 09:33:29;;;;;;;14.03;3.10;;;7.10;99.90;;;;;;4932316;28;47803;-76
2023/02/25 09:36:02;;;;;;;16.30;3.20;;;7.10;99.90;;;;;;4923015;29;38479;-76
2023/02/25 09:38:28;;;;;;;19.90;3.03;;;7.10;99.90;;;;;;4927498;29;47133;-76
2023/02/25 09:40:54;;;;;;;15.30;3.37;;;7.10;99.90;;;;;;4926672;29;36821;-76
2023/02/25 09:43:27;;;;;;;18.43;2.57;;;7.10;99.90;;;;;;4933580;28;36793;-75
2023/02/25 09:46:07;;;;;;;19.17;3.13;;;7.10;99.90;;;;;;4922207;29;38729;-75
2023/02/25 09:48:37;;;;;;;21.50;3.70;;;7.10;99.90;;;;;;4919258;29;47422;-76
2023/02/25 09:51:19;;;;;;;14.77;2.70;;;7.10;99.90;;;;;;4932328;28;38207;-76
2023/02/25 09:54:05;;;;;;;16.23;3.13;;;7.10;99.90;;;;;;4932984;28;36776;-76
2023/02/25 09:56:33;;;;;;;13.77;2.47;;;7.20;99.90;;;;;;4910307;29;48731;-76
2023/02/25 09:58:59;;;;;;;14.60;2.60;;;7.30;99.90;;;;;;4934206;28;39585;-76
2023/02/25 10:01:38;;;;;;;14.97;2.70;;;7.30;99.90;;;;;;4917243;29;38313;-76
2023/02/25 10:04:37;;;;;;;9.00;1.47;;;6.90;99.90;;;;;;4924077;28;37052;-75
2023/02/25 10:07:19;;;;;;;17.80;2.53;;;6.80;99.90;;;;;;4923478;28;38010;-76
2023/02/25 10:09:55;;;;;;;15.97;2.50;;;6.70;99.90;;;;;;4931382;29;37715;-76
2023/02/25 10:12:30;;;;;;;14.60;2.73;;;6.70;99.90;;;;;;4930466;28;38176;-76
2023/02/25 10:15:05;;;;;;;17.30;3.30;;;6.80;99.90;;;;;;4933801;28;38530;-76
2023/02/25 10:17:49;;;;;;;18.90;2.90;;;6.90;99.90;;;;;;4925099;29;47188;-76
2023/02/25 10:20:29;;;;;;;20.93;2.33;;;6.80;99.90;;;;;;4933338;28;39172;-76
2023/02/25 10:23:23;;;;;;;17.90;3.10;;;6.80;99.90;;;;;;4932563;29;36850;-76
2023/02/25 10:26:01;;;;;;;19.37;2.80;;;6.80;99.90;;;;;;4924112;29;47187;-76
2023/02/25 10:28:30;;;;;;;16.63;2.43;;;7.00;99.90;;;;;;4931565;29;47144;-76
2023/02/25 10:31:10;;;;;;;23.83;4.60;;;7.30;99.90;;;;;;4932430;28;39319;-76
2023/02/25 10:33:39;;;;;;;19.67;3.23;;;7.60;99.90;;;;;;4930917;28;48866;-76
2023/02/25 10:36:26;;;;;;;18.37;2.70;;;7.50;99.90;;;;;;4931622;28;37077;-76
2023/02/25 10:38:53;;;;;;;18.87;2.63;;;7.50;99.90;;;;;;4924650;28;37962;-77
2023/02/25 10:41:21;;;;;;;13.83;3.17;;;7.70;99.90;;;;;;4930090;28;37290;-76
2023/02/25 10:43:49;;;;;;;18.53;3.73;;;7.60;99.90;;;;;;4934549;28;38129;-76
2023/02/25 10:46:31;;;;;;;12.33;1.97;;;7.80;99.90;;;;;;4923383;28;36915;-75
2023/02/25 10:49:01;;;;;;;11.18;2.10;;;8.00;99.90;;;;;;4932911;28;38904;-76
2023/02/25 10:51:28;;;;;;;15.13;2.50;;;8.10;99.90;;;;;;4931969;28;46919;-77
2023/02/25 10:53:58;;;;;;;16.83;2.33;;;8.10;99.90;;;;;;4932836;28;37208;-76
2023/02/25 10:56:29;;;;;;;14.03;2.67;;;8.00;99.90;;;;;;4929363;28;37344;-77
2023/02/25 10:59:05;;;;;;;20.10;2.30;;;7.90;99.90;;;;;;4931568;28;40236;-77
2023/02/25 11:01:41;;;;;;;12.50;2.33;;;7.60;99.90;;;;;;4930904;29;46580;-76
2023/02/25 11:04:13;;;;;;;10.63;1.73;;;7.10;99.90;;;;;;4944586;28;39109;-75
2023/02/25 11:06:41;;;;;;;10.73;1.85;;;6.70;99.90;;;;;;4951302;28;38365;-76
2023/02/25 11:09:19;;;;;;;6.57;1.50;;;6.60;99.90;;;;;;4952744;28;39943;-76
2023/02/25 11:11:54;;;;;;;5.60;1.17;;;6.40;99.90;;;;;;4937434;28;36881;-76
2023/02/25 11:14:27;;;;;;;5.40;1.03;;;6.40;99.90;;;;;;4940430;28;36832;-76
2023/02/25 11:17:01;;;;;;;;;;;6.50;99.90;;;;;;4951761;28;37632;-76
2023/02/25 11:19:31;;;;;;;9.93;1.33;;;6.80;99.90;;;;;;4927363;28;38735;-77
2023/02/25 11:21:59;;;;;;;8.73;1.30;;;7.10;99.90;;;;;;4952351;28;38592;-77
2023/02/25 11:24:32;;;;;;;10.90;1.40;;;7.10;99.90;;;;;;4938214;28;38397;-76
2023/02/25 11:27:00;;;;;;;6.00;1.20;;;7.20;99.90;;;;;;4926268;28;37304;-76
2023/02/25 11:29:37;;;;;;;10.93;1.57;;;7.40;99.90;;;;;;4950870;28;39536;-77
2023/02/25 11:32:18;;;;;;;8.83;1.33;;;7.50;99.90;;;;;;4934497;28;37055;-76
2023/02/25 11:35:03;;;;;;;5.27;1.10;;;7.70;99.90;;;;;;4924373;28;38042;-77
2023/02/25 11:37:46;;;;;;;6.70;1.33;;;7.80;99.90;;;;;;4934699;28;47576;-77
2023/02/25 11:40:18;;;;;;;;;;;8.00;99.90;;;;;;4941641;28;38909;-76
2023/02/25 11:43:04;;;;;;;8.97;1.33;;;8.10;99.90;;;;;;4923322;28;37735;-76
2023/02/25 11:45:45;;;;;;;5.43;1.50;;;8.20;99.90;;;;;;4942875;28;47683;-77
2023/02/25 11:48:20;;;;;;;7.40;1.37;;;8.40;99.90;;;;;;4938324;28;38180;-77
2023/02/25 11:50:54;;;;;;;4.77;1.10;;;8.50;99.90;;;;;;4944465;28;37238;-76
2023/02/25 11:53:50;;;;;;;6.03;1.30;;;8.80;99.90;;;;;;4939221;28;38319;-76
2023/02/25 11:56:35;;;;;;;9.07;1.13;;;9.30;99.90;;;;;;4933870;28;38403;-76
2023/02/25 11:59:29;;;;;;;5.30;0.77;;;9.50;99.90;;;;;;4930565;28;36368;-76
2023/02/25 12:02:13;;;;;;;5.77;1.20;;;9.50;99.90;;;;;;4932090;28;39251;-77
2023/02/25 12:05:04;;;;;;;11.23;1.30;;;9.20;99.90;;;;;;4943396;28;47131;-77
2023/02/25 12:07:49;;;;;;;7.67;1.73;;;8.60;99.90;;;;;;4942805;28;47354;-77
2023/02/25 12:10:50;;;;;;;7.43;1.33;;;8.10;99.90;;;;;;4930023;28;36277;-79
2023/02/25 12:13:53;;;;;;;4.37;1.10;;;7.80;99.90;;;;;;4938433;28;37750;-77
2023/02/25 12:16:57;;;;;;;7.80;1.47;;;7.40;99.90;;;;;;4951374;28;38443;-77
2023/02/25 12:19:50;;;;;;;8.93;1.70;;;6.80;99.90;;;;;;4916830;28;38668;-77
2023/02/25 12:22:32;;;;;;;5.63;1.25;;;6.40;99.90;;;;;;4936158;28;36303;-77
2023/02/25 12:25:25;;;;;;;3.67;1.02;;;6.00;99.90;;;;;;4954381;28;38965;-77
2023/02/25 12:28:30;;;;;;;9.10;1.00;;;5.80;99.90;;;;;;4940293;28;48522;-77
2023/02/25 12:31:18;;;;;;;3.93;0.70;;;5.70;99.90;;;;;;4937667;28;47113;-77
2023/02/25 12:34:14;;;;;;;5.73;0.70;;;5.80;99.90;;;;;;4951858;28;50450;-78
2023/02/25 12:37:05;;;;;;;7.50;1.10;;;6.00;99.90;;;;;;4941597;28;47473;-77
2023/02/25 12:39:40;;;;;;;6.63;0.97;;;6.20;99.90;;;;;;4934334;28;47348;-78
2023/02/25 12:42:31;;;;;;;5.23;0.90;;;6.40;99.90;;;;;;4955684;28;38062;-77
2023/02/25 12:45:31;;;;;;;3.80;0.70;;;6.50;99.90;;;;;;4944761;28;37858;-77
2023/02/25 12:48:28;;;;;;;6.40;1.07;;;6.70;99.90;;;;;;4937183;28;46965;-77
2023/02/25 12:51:16;;;;;;;7.60;0.97;;;6.90;99.90;;;;;;4953916;28;48614;-77
2023/02/25 12:54:02;;;;;;;6.73;1.10;;;7.00;99.90;;;;;;4938017;28;47269;-77
2023/02/25 12:56:52;;;;;;;5.63;0.97;;;7.20;99.90;;;;;;4952362;28;48883;-77
2023/02/25 12:59:35;;;;;;;6.53;0.80;;;7.50;99.90;;;;;;4938071;28;38503;-77
2023/02/25 13:02:34;;;;;;;12.80;1.20;;;7.70;99.90;;;;;;4951450;28;39121;-77
2023/02/25 13:05:30;;;;;;;7.00;1.33;;;7.80;99.90;;;;;;4953038;28;49145;-77
2023/02/25 13:08:10;;;;;;;4.13;0.90;;;7.70;99.90;;;;;;4946977;28;48983;-77
2023/02/25 13:10:53;;;;;;;8.57;1.17;;;7.80;99.90;;;;;;4941019;28;48370;-77
2023/02/25 13:13:37;;;;;;;;;;;8.20;99.90;;;;;;4952745;28;39173;-77
2023/02/25 13:16:19;;;;;;;10.57;1.27;;;8.30;99.90;;;;;;4935763;28;37857;-77